Time;durP1;ratioP1;P1;durP2;ratioP2;P2;SDS_P1;SDS_P2;PMS_P1;PMS_P2;Temp;Humidity;BMP_temperature;BMP_pressure;BME280_temperature;BME280_humidity;BME280_pressure;Samples;Min_cycle;Max_cycle;Signal;HPM_P1;HPM_P2
2023/07/14 00:01:45;;;;;;;0.70;0.70;;;;;;;;;;5058024;28;21089;-76
2023/07/14 00:04:13;;;;;;;0.80;0.70;;;;;;;;;;5055820;28;20833;-75
2023/07/14 00:06:41;;;;;;;0.70;0.60;;;;;;;;;;5061018;28;20998;-73
2023/07/14 00:09:13;;;;;;;1.00;0.90;;;;;;;;;;5039031;28;20832;-76
2023/07/14 00:11:40;;;;;;;0.70;0.60;;;;;;;;;;5057844;28;20435;-74
2023/07/14 00:14:07;;;;;;;0.80;0.70;;;;;;;;;;5061173;28;20555;-75
2023/07/14 00:16:33;;;;;;;0.70;0.60;;;;;;;;;;5053213;28;20523;-75
2023/07/14 00:19:01;;;;;;;0.97;0.90;;;;;;;;;;5058442;28;20952;-75
2023/07/14 00:21:27;;;;;;;0.73;0.67;;;;;;;;;;5057487;28;20451;-76
2023/07/14 00:23:56;;;;;;;1.73;1.23;;;;;;;;;;5056066;28;20531;-76
2023/07/14 00:26:23;;;;;;;0.70;0.60;;;;;;;;;;5062286;28;20527;-76
2023/07/14 00:28:50;;;;;;;0.77;0.70;;;;;;;;;;5059625;28;20511;-76
2023/07/14 00:31:17;;;;;;;0.80;0.70;;;;;;;;;;5059915;28;20473;-76
2023/07/14 00:33:46;;;;;;;0.70;0.60;;;;;;;;;;5051357;28;20488;-76
2023/07/14 00:36:13;;;;;;;1.13;1.00;;;;;;;;;;5039008;28;20521;-75
2023/07/14 00:38:40;;;;;;;1.00;0.90;;;;;;;;;;5042341;28;20483;-76
2023/07/14 00:41:17;;;;;;;1.10;1.00;;;;;;;;;;5046085;28;20462;-73
2023/07/14 00:43:44;;;;;;;0.90;0.80;;;;;;;;;;5032082;28;21039;-76
2023/07/14 00:46:19;;;;;;;0.80;0.80;;;;;;;;;;5061178;28;20470;-75
2023/07/14 00:48:46;;;;;;;0.80;0.70;;;;;;;;;;5060481;28;20430;-73
2023/07/14 00:51:14;;;;;;;0.73;0.70;;;;;;;;;;5055501;28;20442;-76
2023/07/14 00:53:45;;;;;;;3.03;2.07;;;;;;;;;;5060518;28;20478;-75
2023/07/14 00:56:30;;;;;;;0.80;0.70;;;;;;;;;;5058733;28;20518;-75
2023/07/14 00:58:58;;;;;;;0.80;0.80;;;;;;;;;;5058682;28;20445;-75
2023/07/14 01:01:25;;;;;;;0.90;0.90;;;;;;;;;;5057410;28;20488;-73
2023/07/14 01:03:55;;;;;;;0.70;0.60;;;;;;;;;;5051411;28;20537;-76
2023/07/14 01:06:23;;;;;;;0.80;0.70;;;;;;;;;;5066484;28;20823;-76
2023/07/14 01:08:52;;;;;;;0.83;0.83;;;;;;;;;;5054192;28;20490;-73
2023/07/14 01:11:21;;;;;;;0.70;0.70;;;;;;;;;;5038717;28;20782;-74
2023/07/14 01:13:49;;;;;;;0.80;0.80;;;;;;;;;;5056233;28;20463;-75
2023/07/14 01:16:16;;;;;;;0.80;0.70;;;;;;;;;;5049433;28;20454;-76
2023/07/14 01:18:45;;;;;;;0.70;0.60;;;;;;;;;;5060138;28;20439;-76
2023/07/14 01:21:11;;;;;;;0.70;0.70;;;;;;;;;;5055406;28;20457;-76
2023/07/14 01:23:48;;;;;;;0.80;0.70;;;;;;;;;;5056578;28;20460;-76
2023/07/14 01:26:23;;;;;;;0.80;0.70;;;;;;;;;;5058173;28;20435;-75
2023/07/14 01:28:51;;;;;;;0.83;0.77;;;;;;;;;;5061608;28;20795;-75
2023/07/14 01:31:18;;;;;;;0.80;0.70;;;;;;;;;;5052254;28;20472;-75
2023/07/14 01:33:45;;;;;;;0.70;0.70;;;;;;;;;;5048913;28;20474;-76
2023/07/14 01:36:12;;;;;;;0.70;0.70;;;;;;;;;;5049140;28;20438;-75
2023/07/14 01:38:38;;;;;;;1.53;1.17;;;;;;;;;;5054530;28;20475;-76
2023/07/14 01:41:06;;;;;;;0.80;0.80;;;;;;;;;;5040772;28;20446;-76
2023/07/14 01:43:32;;;;;;;0.73;0.70;;;;;;;;;;5054948;28;20530;-76
2023/07/14 01:46:02;;;;;;;0.77;0.73;;;;;;;;;;5055602;28;20429;-77
2023/07/14 01:48:30;;;;;;;1.20;1.10;;;;;;;;;;5055119;28;20777;-75
2023/07/14 01:50:59;;;;;;;0.70;0.70;;;;;;;;;;5052999;28;20539;-75
2023/07/14 01:53:27;;;;;;;0.70;0.70;;;;;;;;;;5058168;28;20509;-76
2023/07/14 01:55:56;;;;;;;0.70;0.70;;;;;;;;;;5055942;28;20537;-76
2023/07/14 01:58:25;;;;;;;0.70;0.60;;;;;;;;;;5061839;28;20581;-75
2023/07/14 02:00:52;;;;;;;0.80;0.70;;;;;;;;;;5071386;28;20838;-76
2023/07/14 02:03:24;;;;;;;0.80;0.70;;;;;;;;;;5040807;28;20451;-76
2023/07/14 02:05:51;;;;;;;0.80;0.70;;;;;;;;;;5043084;28;20458;-75
2023/07/14 02:08:22;;;;;;;0.80;0.73;;;;;;;;;;5058146;28;20532;-75
2023/07/14 02:10:49;;;;;;;0.70;0.63;;;;;;;;;;5042386;28;20489;-75
2023/07/14 02:13:16;;;;;;;0.77;0.70;;;;;;;;;;5054223;28;20471;-75
2023/07/14 02:15:43;;;;;;;0.80;0.80;;;;;;;;;;5052213;28;20820;-75
2023/07/14 02:18:13;;;;;;;0.80;0.70;;;;;;;;;;5055649;28;20805;-75
2023/07/14 02:20:41;;;;;;;0.77;0.70;;;;;;;;;;5039137;28;20469;-75
2023/07/14 02:23:11;;;;;;;0.70;0.70;;;;;;;;;;5040889;28;20465;-76
2023/07/14 02:25:41;;;;;;;0.80;0.70;;;;;;;;;;5056523;28;20439;-76
2023/07/14 02:28:08;;;;;;;0.70;0.70;;;;;;;;;;5052209;28;20438;-76
2023/07/14 02:30:35;;;;;;;0.70;0.70;;;;;;;;;;5055692;28;20446;-75
2023/07/14 02:33:04;;;;;;;0.90;0.90;;;;;;;;;;5058027;28;20447;-76
2023/07/14 02:35:36;;;;;;;0.90;0.90;;;;;;;;;;5054957;28;20774;-76
2023/07/14 02:38:10;;;;;;;0.80;0.70;;;;;;;;;;5042043;28;20507;-75
2023/07/14 02:40:39;;;;;;;0.70;0.70;;;;;;;;;;5057597;28;20425;-74
2023/07/14 02:43:06;;;;;;;0.90;0.90;;;;;;;;;;5056134;28;20494;-75
2023/07/14 02:45:35;;;;;;;0.80;0.70;;;;;;;;;;5057673;28;20559;-76
2023/07/14 02:48:03;;;;;;;0.80;0.70;;;;;;;;;;5054905;28;20916;-74
2023/07/14 02:50:29;;;;;;;0.80;0.80;;;;;;;;;;5037218;28;20847;-75
2023/07/14 02:52:56;;;;;;;0.70;0.70;;;;;;;;;;5053848;28;20504;-76
2023/07/14 02:55:24;;;;;;;0.93;0.87;;;;;;;;;;5060817;28;20481;-76
2023/07/14 02:57:51;;;;;;;0.70;0.60;;;;;;;;;;5034803;28;20443;-76
2023/07/14 03:00:18;;;;;;;0.80;0.80;;;;;;;;;;5058085;28;20531;-75
2023/07/14 03:02:44;;;;;;;0.80;0.80;;;;;;;;;;5056219;28;20480;-73
2023/07/14 03:05:14;;;;;;;0.80;0.70;;;;;;;;;;5051664;28;20491;-72
2023/07/14 03:07:40;;;;;;;0.80;0.80;;;;;;;;;;5050988;28;21029;-75
2023/07/14 03:10:08;;;;;;;0.70;0.60;;;;;;;;;;5064085;28;20708;-75
2023/07/14 03:12:36;;;;;;;0.70;0.70;;;;;;;;;;5054868;28;20451;-74
2023/07/14 03:15:04;;;;;;;0.80;0.77;;;;;;;;;;5054086;28;20908;-73
2023/07/14 03:17:30;;;;;;;1.07;0.97;;;;;;;;;;5035912;28;20519;-73
2023/07/14 03:19:57;;;;;;;0.80;0.70;;;;;;;;;;5053042;28;20998;-75
2023/07/14 03:22:26;;;;;;;0.80;0.70;;;;;;;;;;5061738;28;20459;-75
2023/07/14 03:24:52;;;;;;;0.70;0.60;;;;;;;;;;5055971;28;21460;-75
2023/07/14 03:27:19;;;;;;;0.80;0.70;;;;;;;;;;5053467;28;21296;-75
2023/07/14 03:29:48;;;;;;;0.80;0.70;;;;;;;;;;5044848;28;20445;-76
2023/07/14 03:32:14;;;;;;;0.80;0.80;;;;;;;;;;5057246;28;20465;-77
2023/07/14 03:34:42;;;;;;;0.70;0.70;;;;;;;;;;5037570;28;20471;-76
2023/07/14 03:37:08;;;;;;;0.80;0.70;;;;;;;;;;5051168;28;20460;-77
2023/07/14 03:39:35;;;;;;;0.80;0.80;;;;;;;;;;5059663;28;20591;-77
2023/07/14 03:42:02;;;;;;;0.80;0.70;;;;;;;;;;5059126;28;20787;-76
2023/07/14 03:44:28;;;;;;;0.70;0.70;;;;;;;;;;5054330;28;20433;-74
2023/07/14 03:46:57;;;;;;;0.80;0.80;;;;;;;;;;5072888;28;20463;-75
2023/07/14 03:49:23;;;;;;;0.80;0.80;;;;;;;;;;5060538;28;20475;-75
2023/07/14 03:51:51;;;;;;;0.70;0.70;;;;;;;;;;5056385;28;20475;-75
2023/07/14 03:54:17;;;;;;;0.73;0.70;;;;;;;;;;5062135;28;20564;-76
2023/07/14 03:56:44;;;;;;;0.80;0.80;;;;;;;;;;5056726;28;20479;-76
2023/07/14 03:59:11;;;;;;;1.00;0.90;;;;;;;;;;5064329;28;20485;-76
2023/07/14 04:01:37;;;;;;;0.80;0.80;;;;;;;;;;5058941;28;20807;-75
2023/07/14 04:04:06;;;;;;;0.80;0.80;;;;;;;;;;5048559;28;20435;-75
2023/07/14 04:06:32;;;;;;;0.70;0.60;;;;;;;;;;5028281;28;20546;-74
2023/07/14 04:09:00;;;;;;;0.70;0.60;;;;;;;;;;5053004;28;21433;-74
2023/07/14 04:11:31;;;;;;;0.90;0.90;;;;;;;;;;5044809;28;20470;-74
2023/07/14 04:13:59;;;;;;;0.83;0.83;;;;;;;;;;5058708;28;20491;-75
2023/07/14 04:16:26;;;;;;;0.83;0.83;;;;;;;;;;5057901;28;20445;-76
2023/07/14 04:18:52;;;;;;;0.70;0.70;;;;;;;;;;5042659;28;21271;-76
2023/07/14 04:21:24;;;;;;;0.80;0.80;;;;;;;;;;5061163;28;20433;-76
2023/07/14 04:23:51;;;;;;;0.70;0.70;;;;;;;;;;5055833;28;20451;-75
2023/07/14 04:26:18;;;;;;;0.90;0.90;;;;;;;;;;5055276;28;20465;-75
2023/07/14 04:28:44;;;;;;;0.70;0.63;;;;;;;;;;5055694;28;20440;-75
2023/07/14 04:31:11;;;;;;;0.73;0.70;;;;;;;;;;5056848;28;20520;-76
2023/07/14 04:33:37;;;;;;;0.90;0.90;;;;;;;;;;5057289;28;20515;-76
2023/07/14 04:36:05;;;;;;;0.87;0.87;;;;;;;;;;5059752;28;20782;-75
2023/07/14 04:38:34;;;;;;;0.70;0.70;;;;;;;;;;5058124;28;20457;-76
2023/07/14 04:41:02;;;;;;;0.70;0.63;;;;;;;;;;5058815;28;20436;-75
2023/07/14 04:43:29;;;;;;;0.80;0.73;;;;;;;;;;5055277;28;20436;-76
2023/07/14 04:45:55;;;;;;;0.80;0.73;;;;;;;;;;5054615;28;20431;-76
2023/07/14 04:48:23;;;;;;;0.80;0.73;;;;;;;;;;5058426;28;20453;-76
2023/07/14 04:50:50;;;;;;;0.70;0.63;;;;;;;;;;5056102;28;20451;-76
2023/07/14 04:53:17;;;;;;;0.90;0.90;;;;;;;;;;5055830;28;20451;-75
2023/07/14 04:55:46;;;;;;;0.70;0.67;;;;;;;;;;5053096;28;20496;-75
2023/07/14 04:58:13;;;;;;;0.70;0.70;;;;;;;;;;5050993;28;20443;-76
2023/07/14 05:00:42;;;;;;;0.70;0.60;;;;;;;;;;5057002;28;20534;-75
2023/07/14 05:03:09;;;;;;;0.80;0.70;;;;;;;;;;5057944;28;20795;-76
2023/07/14 05:05:35;;;;;;;0.70;0.67;;;;;;;;;;5053115;28;20452;-75
2023/07/14 05:08:02;;;;;;;0.80;0.70;;;;;;;;;;5055812;28;20555;-74
2023/07/14 05:10:34;;;;;;;0.80;0.70;;;;;;;;;;5057588;28;20468;-75
2023/07/14 05:13:02;;;;;;;0.77;0.70;;;;;;;;;;5055668;28;20425;-76
2023/07/14 05:15:29;;;;;;;0.70;0.70;;;;;;;;;;5058335;28;20560;-75
2023/07/14 05:17:55;;;;;;;0.80;0.70;;;;;;;;;;5055361;28;20851;-75
2023/07/14 05:20:22;;;;;;;0.70;0.70;;;;;;;;;;5061868;28;20548;-75
2023/07/14 05:22:50;;;;;;;1.07;0.97;;;;;;;;;;5050000;28;20555;-75
2023/07/14 05:25:17;;;;;;;0.80;0.80;;;;;;;;;;5050410;28;20798;-73
2023/07/14 05:27:44;;;;;;;0.70;0.70;;;;;;;;;;5044289;28;20497;-75
2023/07/14 05:30:14;;;;;;;1.03;1.00;;;;;;;;;;5052917;28;20461;-75
2023/07/14 05:32:41;;;;;;;0.80;0.73;;;;;;;;;;5057634;28;20430;-75
2023/07/14 05:35:08;;;;;;;0.80;0.80;;;;;;;;;;5054326;28;20506;-76
2023/07/14 05:37:35;;;;;;;0.80;0.80;;;;;;;;;;5050299;28;20468;-74
2023/07/14 05:40:05;;;;;;;0.70;0.67;;;;;;;;;;5051488;28;20495;-75
2023/07/14 05:42:33;;;;;;;0.80;0.70;;;;;;;;;;5061932;28;20499;-74
2023/07/14 05:45:00;;;;;;;0.70;0.67;;;;;;;;;;5053257;28;20427;-75
2023/07/14 05:47:28;;;;;;;0.80;0.70;;;;;;;;;;5052107;28;20443;-76
2023/07/14 05:49:54;;;;;;;0.70;0.60;;;;;;;;;;5040459;28;20508;-77
2023/07/14 05:52:22;;;;;;;0.77;0.70;;;;;;;;;;5055715;28;20577;-76
2023/07/14 05:54:49;;;;;;;0.70;0.60;;;;;;;;;;5051992;28;20475;-75
2023/07/14 05:57:15;;;;;;;0.73;0.70;;;;;;;;;;5052293;28;20444;-76
2023/07/14 05:59:43;;;;;;;1.00;0.90;;;;;;;;;;5052516;28;20856;-76
2023/07/14 06:02:11;;;;;;;1.00;0.87;;;;;;;;;;5055254;28;20433;-75
2023/07/14 06:04:39;;;;;;;0.70;0.60;;;;;;;;;;5049686;28;20437;-75
2023/07/14 06:07:06;;;;;;;0.80;0.70;;;;;;;;;;5051335;28;20460;-75
2023/07/14 06:09:34;;;;;;;0.70;0.70;;;;;;;;;;5054192;28;20444;-75
2023/07/14 06:12:02;;;;;;;0.70;0.60;;;;;;;;;;5053004;28;20431;-75
2023/07/14 06:14:29;;;;;;;1.57;1.20;;;;;;;;;;5072752;28;20482;-75
2023/07/14 06:16:56;;;;;;;0.70;0.60;;;;;;;;;;5040754;28;20449;-75
2023/07/14 06:19:22;;;;;;;0.70;0.70;;;;;;;;;;5051974;28;20894;-75
2023/07/14 06:21:50;;;;;;;0.80;0.70;;;;;;;;;;5070052;28;20531;-76
2023/07/14 06:24:17;;;;;;;0.83;0.83;;;;;;;;;;5054242;28;20461;-75
2023/07/14 06:26:44;;;;;;;0.70;0.63;;;;;;;;;;5058617;28;20451;-75
2023/07/14 06:29:11;;;;;;;0.80;0.70;;;;;;;;;;5059579;28;20443;-75
2023/07/14 06:31:38;;;;;;;0.87;0.80;;;;;;;;;;5059288;28;20908;-75
2023/07/14 06:34:05;;;;;;;0.80;0.77;;;;;;;;;;5052835;28;21006;-75
2023/07/14 06:36:31;;;;;;;0.87;0.80;;;;;;;;;;5053846;28;20475;-74
2023/07/14 06:38:59;;;;;;;0.70;0.70;;;;;;;;;;5052919;28;20543;-75
2023/07/14 06:41:26;;;;;;;0.90;0.90;;;;;;;;;;5058176;28;20443;-75
2023/07/14 06:43:54;;;;;;;0.80;0.70;;;;;;;;;;5057861;28;20464;-76
2023/07/14 06:46:20;;;;;;;0.80;0.70;;;;;;;;;;5039890;28;20531;-75
2023/07/14 06:48:48;;;;;;;0.87;0.87;;;;;;;;;;5059591;28;20442;-75
2023/07/14 06:51:15;;;;;;;0.80;0.80;;;;;;;;;;5060329;28;20869;-75
2023/07/14 06:53:41;;;;;;;0.80;0.80;;;;;;;;;;5055027;28;20451;-75
2023/07/14 06:56:10;;;;;;;0.80;0.80;;;;;;;;;;5051600;28;20478;-75
2023/07/14 06:58:37;;;;;;;1.00;0.90;;;;;;;;;;5057752;28;20426;-75
2023/07/14 07:01:04;;;;;;;0.80;0.77;;;;;;;;;;5062245;28;20944;-74
2023/07/14 07:03:30;;;;;;;0.80;0.80;;;;;;;;;;5055954;28;20453;-75
2023/07/14 07:05:58;;;;;;;1.07;1.00;;;;;;;;;;5060368;28;20435;-76
2023/07/14 07:08:25;;;;;;;0.87;0.87;;;;;;;;;;5060600;28;20469;-75
2023/07/14 07:10:52;;;;;;;0.80;0.70;;;;;;;;;;5060554;28;20464;-75
2023/07/14 07:13:21;;;;;;;0.80;0.70;;;;;;;;;;5058620;28;20436;-75
2023/07/14 07:15:49;;;;;;;0.80;0.73;;;;;;;;;;5058985;28;20552;-77
2023/07/14 07:18:19;;;;;;;0.80;0.70;;;;;;;;;;5061325;28;20876;-76
2023/07/14 07:20:46;;;;;;;0.80;0.73;;;;;;;;;;5054031;28;20526;-75
2023/07/14 07:23:14;;;;;;;1.00;0.90;;;;;;;;;;5061881;28;20809;-77
2023/07/14 07:25:47;;;;;;;0.80;0.70;;;;;;;;;;5050794;28;20443;-75
2023/07/14 07:28:15;;;;;;;0.73;0.67;;;;;;;;;;5054951;28;20428;-76
2023/07/14 07:30:43;;;;;;;0.80;0.80;;;;;;;;;;5058059;28;20541;-75
2023/07/14 07:33:11;;;;;;;0.83;0.83;;;;;;;;;;5057220;28;20436;-76
2023/07/14 07:35:38;;;;;;;0.80;0.70;;;;;;;;;;5057987;28;20795;-75
2023/07/14 07:38:05;;;;;;;0.80;0.80;;;;;;;;;;5054622;28;20472;-75
2023/07/14 07:40:32;;;;;;;0.70;0.70;;;;;;;;;;5030726;28;20444;-76
2023/07/14 07:42:59;;;;;;;0.80;0.80;;;;;;;;;;5062537;28;20542;-76
2023/07/14 07:45:26;;;;;;;0.80;0.70;;;;;;;;;;5058830;28;20459;-77
2023/07/14 07:47:54;;;;;;;0.80;0.70;;;;;;;;;;5059870;28;21014;-77
2023/07/14 07:50:22;;;;;;;0.70;0.60;;;;;;;;;;5057935;28;20461;-77
2023/07/14 07:52:51;;;;;;;0.70;0.70;;;;;;;;;;5055465;28;20791;-78
2023/07/14 07:55:18;;;;;;;0.80;0.80;;;;;;;;;;5054955;28;20535;-78
2023/07/14 07:57:47;;;;;;;0.77;0.70;;;;;;;;;;5054999;28;20409;-76
2023/07/14 08:00:15;;;;;;;0.70;0.70;;;;;;;;;;5056940;28;20462;-78
2023/07/14 08:02:42;;;;;;;0.90;0.80;;;;;;;;;;5063447;28;20414;-76
2023/07/14 08:05:12;;;;;;;0.80;0.60;;;;;;;;;;5040619;28;20456;-78
2023/07/14 08:07:40;;;;;;;0.80;0.80;;;;;;;;;;5054021;28;20503;-77
2023/07/14 08:10:07;;;;;;;0.80;0.70;;;;;;;;;;5055630;28;20956;-78
2023/07/14 08:12:34;;;;;;;0.80;0.80;;;;;;;;;;5058803;28;20417;-79
2023/07/14 08:15:00;;;;;;;0.80;0.70;;;;;;;;;;5058511;28;20420;-76
2023/07/14 08:17:29;;;;;;;0.80;0.73;;;;;;;;;;5059669;28;20444;-78
2023/07/14 08:19:57;;;;;;;0.70;0.70;;;;;;;;;;5058554;28;20435;-78
2023/07/14 08:22:28;;;;;;;0.70;0.60;;;;;;;;;;5054094;28;20458;-79
2023/07/14 08:24:55;;;;;;;0.70;0.60;;;;;;;;;;5046635;28;20445;-79
2023/07/14 08:27:23;;;;;;;0.80;0.80;;;;;;;;;;5056530;28;20843;-78
2023/07/14 08:29:49;;;;;;;0.77;0.70;;;;;;;;;;5054589;28;20437;-78
2023/07/14 08:32:16;;;;;;;0.80;0.70;;;;;;;;;;5062466;28;20447;-79
2023/07/14 08:34:44;;;;;;;1.07;0.90;;;;;;;;;;5058185;28;20444;-77
2023/07/14 08:37:11;;;;;;;0.73;0.60;;;;;;;;;;5060172;28;20521;-78
2023/07/14 08:39:40;;;;;;;10.13;1.33;;;;;;;;;;5055427;28;20444;-79
2023/07/14 08:42:13;;;;;;;1.00;0.90;;;;;;;;;;5061314;28;20444;-79
2023/07/14 08:44:46;;;;;;;0.80;0.70;;;;;;;;;;5057674;28;20447;-80
2023/07/14 08:47:17;;;;;;;0.70;0.60;;;;;;;;;;5038455;28;20444;-78
2023/07/14 08:49:48;;;;;;;0.80;0.80;;;;;;;;;;5058873;28;20537;-78
2023/07/14 08:52:19;;;;;;;1.03;0.90;;;;;;;;;;5055672;28;20880;-77
2023/07/14 08:54:50;;;;;;;0.70;0.70;;;;;;;;;;5054255;28;20420;-78
2023/07/14 08:57:19;;;;;;;0.80;0.80;;;;;;;;;;5042961;28;20465;-77
2023/07/14 08:59:47;;;;;;;0.80;0.70;;;;;;;;;;5063272;28;20521;-79
2023/07/14 09:02:18;;;;;;;1.63;1.03;;;;;;;;;;5057617;28;20521;-76
2023/07/14 09:04:50;;;;;;;0.80;0.70;;;;;;;;;;5063669;28;20491;-79
2023/07/14 09:07:17;;;;;;;0.80;0.70;;;;;;;;;;5059213;28;20473;-71
2023/07/14 09:09:43;;;;;;;0.77;0.70;;;;;;;;;;5057817;28;20440;-75
2023/07/14 09:12:16;;;;;;;1.47;0.83;;;;;;;;;;5056419;28;20448;-77
2023/07/14 09:14:51;;;;;;;0.70;0.70;;;;;;;;;;5044903;28;20918;-77
2023/07/14 09:17:22;;;;;;;0.80;0.80;;;;;;;;;;5054675;28;20522;-77
2023/07/14 09:20:00;;;;;;;0.70;0.60;;;;;;;;;;5051274;28;20478;-82
2023/07/14 09:22:30;;;;;;;0.70;0.60;;;;;;;;;;5057750;28;20459;-80
2023/07/14 09:25:03;;;;;;;0.80;0.70;;;;;;;;;;5049196;28;20436;-81
2023/07/14 09:27:33;;;;;;;0.70;0.67;;;;;;;;;;5056645;28;20455;-76
2023/07/14 09:29:59;;;;;;;0.70;0.60;;;;;;;;;;5055547;28;20683;-77
2023/07/14 09:32:30;;;;;;;0.80;0.80;;;;;;;;;;5058245;28;20792;-80
2023/07/14 09:34:58;;;;;;;0.77;0.70;;;;;;;;;;5061198;28;20423;-80
2023/07/14 09:37:27;;;;;;;0.80;0.70;;;;;;;;;;5058618;28;20479;-78
2023/07/14 09:40:00;;;;;;;0.80;0.70;;;;;;;;;;5052566;28;20439;-80
2023/07/14 09:42:31;;;;;;;0.77;0.70;;;;;;;;;;5055395;28;20529;-76
2023/07/14 09:45:08;;;;;;;1.03;0.97;;;;;;;;;;5053479;28;20443;-79
2023/07/14 09:47:35;;;;;;;4.30;1.20;;;;;;;;;;5052251;28;20445;-79
2023/07/14 09:50:04;;;;;;;0.70;0.60;;;;;;;;;;5060233;28;20553;-79
2023/07/14 09:52:31;;;;;;;0.80;0.70;;;;;;;;;;5058499;28;20843;-79
2023/07/14 09:54:58;;;;;;;0.70;0.60;;;;;;;;;;5054026;28;20475;-76
2023/07/14 09:57:26;;;;;;;0.80;0.70;;;;;;;;;;5052353;28;20548;-78
2023/07/14 10:00:17;;;;;;;0.80;0.70;;;;;;;;;;5063497;28;20555;-77
2023/07/14 10:02:48;;;;;;;1.00;0.80;;;;;;;;;;5052600;28;20942;-78
2023/07/14 10:05:25;;;;;;;0.90;0.80;;;;;;;;;;5051535;28;20447;-79
2023/07/14 10:07:53;;;;;;;0.70;0.60;;;;;;;;;;5055458;28;20456;-80
2023/07/14 10:10:24;;;;;;;0.70;0.60;;;;;;;;;;5054976;28;20448;-79
2023/07/14 10:12:51;;;;;;;0.80;0.70;;;;;;;;;;5054092;28;20456;-78
2023/07/14 10:15:30;;;;;;;0.70;0.60;;;;;;;;;;5053358;28;20435;-79
2023/07/14 10:17:58;;;;;;;0.70;0.50;;;;;;;;;;5050666;28;20434;-78
2023/07/14 10:20:27;;;;;;;0.80;0.63;;;;;;;;;;5049588;28;20459;-78
2023/07/14 10:22:54;;;;;;;0.70;0.67;;;;;;;;;;5054335;28;20547;-79
2023/07/14 10:25:22;;;;;;;0.70;0.60;;;;;;;;;;5053723;28;20519;-79
2023/07/14 10:27:56;;;;;;;0.80;0.63;;;;;;;;;;5051896;28;20527;-75
2023/07/14 10:30:35;;;;;;;0.70;0.60;;;;;;;;;;5056459;28;20466;-78
2023/07/14 10:33:08;;;;;;;0.70;0.60;;;;;;;;;;5043691;28;20431;-78
2023/07/14 10:35:36;;;;;;;0.80;0.70;;;;;;;;;;5059884;28;20519;-77
2023/07/14 10:38:09;;;;;;;0.70;0.60;;;;;;;;;;5062207;28;20535;-79
2023/07/14 10:40:38;;;;;;;0.70;0.50;;;;;;;;;;5056286;28;20436;-78
2023/07/14 10:43:10;;;;;;;0.80;0.60;;;;;;;;;;5062137;28;20450;-77
2023/07/14 10:45:40;;;;;;;1.03;0.93;;;;;;;;;;5049187;28;20973;-78
2023/07/14 10:48:11;;;;;;;1.80;0.90;;;;;;;;;;5074890;28;20445;-77
2023/07/14 10:50:40;;;;;;;0.80;0.73;;;;;;;;;;5066416;28;20451;-75
2023/07/14 10:53:09;;;;;;;0.73;0.67;;;;;;;;;;5065998;28;20589;-75
2023/07/14 10:55:36;;;;;;;0.90;0.70;;;;;;;;;;5049351;28;20797;-76
2023/07/14 10:58:05;;;;;;;0.90;0.80;;;;;;;;;;5059638;28;20519;-79
2023/07/14 11:00:35;;;;;;;0.80;0.70;;;;;;;;;;5059636;28;20518;-78
2023/07/14 11:03:21;;;;;;;1.63;0.73;;;;;;;;;;5066225;28;20436;-80
2023/07/14 11:05:53;;;;;;;0.80;0.80;;;;;;;;;;5062803;28;20538;-78
2023/07/14 11:08:21;;;;;;;0.70;0.60;;;;;;;;;;5049149;28;20468;-78
2023/07/14 11:10:52;;;;;;;0.80;0.60;;;;;;;;;;5067504;28;20525;-78
2023/07/14 11:13:22;;;;;;;0.70;0.60;;;;;;;;;;5038406;28;20454;-79
2023/07/14 11:15:50;;;;;;;0.70;0.50;;;;;;;;;;5055927;28;20447;-80
2023/07/14 11:18:24;;;;;;;0.70;0.60;;;;;;;;;;5061244;28;20438;-78
2023/07/14 11:20:57;;;;;;;0.70;0.60;;;;;;;;;;5059302;28;20428;-77
2023/07/14 11:23:27;;;;;;;0.70;0.50;;;;;;;;;;5062197;28;20456;-78
2023/07/14 11:25:58;;;;;;;0.70;0.50;;;;;;;;;;5064034;28;20439;-78
2023/07/14 11:28:31;;;;;;;0.70;0.60;;;;;;;;;;5044622;28;20494;-78
2023/07/14 11:30:59;;;;;;;0.70;0.50;;;;;;;;;;5041883;28;20549;-78
2023/07/14 11:33:32;;;;;;;0.70;0.60;;;;;;;;;;5059920;28;20436;-80
2023/07/14 11:36:01;;;;;;;0.70;0.60;;;;;;;;;;5056818;28;20905;-78
2023/07/14 11:38:34;;;;;;;0.80;0.70;;;;;;;;;;5063667;28;20486;-79
2023/07/14 11:41:01;;;;;;;0.80;0.70;;;;;;;;;;5046742;28;21068;-79
2023/07/14 11:43:29;;;;;;;1.00;0.90;;;;;;;;;;5061397;28;20462;-75
2023/07/14 11:45:58;;;;;;;0.80;0.70;;;;;;;;;;5045120;28;20445;-76
2023/07/14 11:48:33;;;;;;;0.70;0.50;;;;;;;;;;5061417;28;20604;-78
2023/07/14 11:51:12;;;;;;;0.80;0.63;;;;;;;;;;5048644;28;20813;-81
2023/07/14 11:53:40;;;;;;;0.70;0.50;;;;;;;;;;5063119;28;20455;-74
2023/07/14 11:56:18;;;;;;;0.70;0.60;;;;;;;;;;5056332;28;20451;-76
2023/07/14 11:58:44;;;;;;;1.03;0.70;;;;;;;;;;5044202;28;20448;-79
2023/07/14 12:01:14;;;;;;;0.70;0.50;;;;;;;;;;5054823;28;20524;-78
2023/07/14 12:03:46;;;;;;;1.33;1.13;;;;;;;;;;5059062;28;20446;-76
2023/07/14 12:06:25;;;;;;;0.70;0.50;;;;;;;;;;5058491;28;20425;-80
2023/07/14 12:09:13;;;;;;;0.70;0.50;;;;;;;;;;5061466;28;20550;-78
2023/07/14 12:11:49;;;;;;;0.70;0.63;;;;;;;;;;5065303;28;20434;-78
2023/07/14 12:14:26;;;;;;;0.90;0.80;;;;;;;;;;5057700;28;20434;-79
2023/07/14 12:16:53;;;;;;;0.70;0.50;;;;;;;;;;5053107;28;20463;-80
2023/07/14 12:19:21;;;;;;;1.90;0.90;;;;;;;;;;5059990;28;20447;-79
2023/07/14 12:22:05;;;;;;;3.87;0.90;;;;;;;;;;5057390;28;21035;-80
2023/07/14 12:24:34;;;;;;;1.13;0.70;;;;;;;;;;5055863;28;20427;-81
2023/07/14 12:27:11;;;;;;;0.80;0.60;;;;;;;;;;5053259;28;20520;-78
2023/07/14 12:29:39;;;;;;;0.80;0.60;;;;;;;;;;5056845;28;20520;-79
2023/07/14 12:32:23;;;;;;;1.50;0.90;;;;;;;;;;5059452;28;20458;-79
2023/07/14 12:34:50;;;;;;;0.80;0.70;;;;;;;;;;5053367;28;20533;-79
2023/07/14 12:37:20;;;;;;;0.80;0.60;;;;;;;;;;5058409;28;20804;-80
2023/07/14 12:39:47;;;;;;;0.70;0.60;;;;;;;;;;5035518;28;20444;-80
2023/07/14 12:42:14;;;;;;;0.97;0.80;;;;;;;;;;5070792;28;20793;-78
2023/07/14 12:44:41;;;;;;;0.80;0.70;;;;;;;;;;5053670;28;20555;-81
2023/07/14 12:47:12;;;;;;;0.80;0.67;;;;;;;;;;5052612;28;20432;-79
2023/07/14 12:49:46;;;;;;;0.70;0.57;;;;;;;;;;5054472;28;20470;-79
2023/07/14 12:52:16;;;;;;;1.20;0.83;;;;;;;;;;5058910;28;20460;-79
2023/07/14 12:54:45;;;;;;;0.70;0.50;;;;;;;;;;5057442;28;20431;-79
2023/07/14 12:57:13;;;;;;;3.13;0.93;;;;;;;;;;5042481;28;20569;-80
2023/07/14 12:59:39;;;;;;;0.80;0.60;;;;;;;;;;5060167;28;20498;-79
2023/07/14 13:02:10;;;;;;;0.90;0.70;;;;;;;;;;5060728;28;20436;-75
2023/07/14 13:04:37;;;;;;;0.80;0.70;;;;;;;;;;5061242;28;21238;-74
2023/07/14 13:07:05;;;;;;;0.80;0.60;;;;;;;;;;5061338;28;20456;-77
2023/07/14 13:09:31;;;;;;;3.23;0.90;;;;;;;;;;5058277;28;20436;-77
2023/07/14 13:12:02;;;;;;;0.90;0.60;;;;;;;;;;5058637;28;20443;-76
2023/07/14 13:14:30;;;;;;;0.80;0.50;;;;;;;;;;5063147;28;20526;-74
2023/07/14 13:16:59;;;;;;;0.80;0.60;;;;;;;;;;5055426;28;20463;-79
2023/07/14 13:19:31;;;;;;;0.80;0.50;;;;;;;;;;5059411;28;20439;-79
2023/07/14 13:21:59;;;;;;;0.80;0.50;;;;;;;;;;5060741;28;20448;-78
2023/07/14 13:24:28;;;;;;;0.90;0.80;;;;;;;;;;5058390;28;20438;-77
2023/07/14 13:26:56;;;;;;;0.80;0.60;;;;;;;;;;5055368;28;20442;-78
2023/07/14 13:29:25;;;;;;;0.80;0.50;;;;;;;;;;5050256;28;20435;-76
2023/07/14 13:31:55;;;;;;;0.80;0.50;;;;;;;;;;5059665;28;20440;-77
2023/07/14 13:34:22;;;;;;;0.80;0.50;;;;;;;;;;5062385;28;20439;-79
2023/07/14 13:36:50;;;;;;;1.10;0.80;;;;;;;;;;5056379;28;20952;-75
2023/07/14 13:39:22;;;;;;;0.80;0.73;;;;;;;;;;5058726;28;20441;-75
2023/07/14 13:41:54;;;;;;;0.80;0.53;;;;;;;;;;5046444;28;20456;-79
2023/07/14 13:44:36;;;;;;;0.80;0.60;;;;;;;;;;5056862;28;20431;-79
2023/07/14 13:47:09;;;;;;;0.80;0.50;;;;;;;;;;5053591;28;20554;-80
2023/07/14 13:49:37;;;;;;;0.80;0.50;;;;;;;;;;5052904;28;20449;-79
2023/07/14 13:52:09;;;;;;;1.20;0.70;;;;;;;;;;5059980;28;20459;-80
2023/07/14 13:54:38;;;;;;;0.80;0.50;;;;;;;;;;5056055;28;20436;-79
2023/07/14 13:57:09;;;;;;;0.90;0.70;;;;;;;;;;5063475;28;20475;-78
2023/07/14 13:59:38;;;;;;;0.80;0.50;;;;;;;;;;5043460;28;20546;-81
2023/07/14 14:02:18;;;;;;;0.80;0.50;;;;;;;;;;5053371;28;20440;-80
2023/07/14 14:04:45;;;;;;;0.80;0.60;;;;;;;;;;5033090;28;20481;-78
2023/07/14 14:07:11;;;;;;;0.80;0.60;;;;;;;;;;5057759;28;20467;-76
2023/07/14 14:09:38;;;;;;;0.80;0.50;;;;;;;;;;5051899;28;20435;-78
2023/07/14 14:12:06;;;;;;;2.10;1.03;;;;;;;;;;5056979;28;20535;-79
2023/07/14 14:14:33;;;;;;;1.00;0.70;;;;;;;;;;5051807;28;20443;-79
2023/07/14 14:17:02;;;;;;;1.00;0.80;;;;;;;;;;5041085;28;20472;-78
2023/07/14 14:19:28;;;;;;;0.90;0.70;;;;;;;;;;5053285;28;20916;-80
2023/07/14 14:21:57;;;;;;;0.80;0.50;;;;;;;;;;5050049;28;20534;-81
2023/07/14 14:24:24;;;;;;;0.90;0.80;;;;;;;;;;5062447;28;20479;-82
2023/07/14 14:26:50;;;;;;;0.80;0.60;;;;;;;;;;5048292;28;20492;-79
2023/07/14 14:29:18;;;;;;;0.80;0.60;;;;;;;;;;5048230;28;20431;-80
2023/07/14 14:31:45;;;;;;;1.57;1.47;;;;;;;;;;5054123;28;20444;-80
2023/07/14 14:34:14;;;;;;;0.70;0.50;;;;;;;;;;5060288;28;20480;-80
2023/07/14 14:36:41;;;;;;;0.70;0.50;;;;;;;;;;5056727;28;20449;-79
2023/07/14 14:39:12;;;;;;;0.70;0.50;;;;;;;;;;5055675;28;20432;-79
2023/07/14 14:41:39;;;;;;;0.70;0.60;;;;;;;;;;5058888;28;20444;-80
2023/07/14 14:44:10;;;;;;;0.70;0.50;;;;;;;;;;5054191;28;20439;-81
2023/07/14 14:46:37;;;;;;;0.80;0.60;;;;;;;;;;5055319;28;20483;-79
2023/07/14 14:49:08;;;;;;;0.70;0.50;;;;;;;;;;5053329;28;20444;-79
2023/07/14 14:51:37;;;;;;;0.80;0.60;;;;;;;;;;5056341;28;20970;-79
2023/07/14 14:54:05;;;;;;;0.90;0.60;;;;;;;;;;5056767;28;20433;-79